sensor_id;sensor_type;location;lat;lon;timestamp;temperature;humidity
64937;SHT30;51452;47.698;19.050;2022-09-09T00:04:27;19.43;75.90
64937;SHT30;51452;47.698;19.050;2022-09-09T00:09:27;19.45;75.67
64937;SHT30;51452;47.698;19.050;2022-09-09T00:12:15;19.39;76.13
64937;SHT30;51452;47.698;19.050;2022-09-09T00:17:56;19.52;76.02
64937;SHT30;51452;47.698;19.050;2022-09-09T00:20:44;19.43;75.91
64937;SHT30;51452;47.698;19.050;2022-09-09T00:23:30;19.35;75.78
64937;SHT30;51452;47.698;19.050;2022-09-09T00:26:11;19.39;76.04
64937;SHT30;51452;47.698;19.050;2022-09-09T00:29:01;19.43;75.58
64937;SHT30;51452;47.698;19.050;2022-09-09T00:31:30;19.43;76.06
64937;SHT30;51452;47.698;19.050;2022-09-09T00:34:13;19.39;75.86
64937;SHT30;51452;47.698;19.050;2022-09-09T00:36:41;19.39;75.73
64937;SHT30;51452;47.698;19.050;2022-09-09T00:39:17;19.36;76.12
64937;SHT30;51452;47.698;19.050;2022-09-09T00:44:32;19.15;75.46
64937;SHT30;51452;47.698;19.050;2022-09-09T00:57:40;19.18;75.69
64937;SHT30;51452;47.698;19.050;2022-09-09T01:00:52;19.20;76.20
64937;SHT30;51452;47.698;19.050;2022-09-09T01:03:34;19.22;76.05
64937;SHT30;51452;47.698;19.050;2022-09-09T01:08:35;19.19;75.64
64937;SHT30;51452;47.698;19.050;2022-09-09T01:11:04;19.19;75.37
64937;SHT30;51452;47.698;19.050;2022-09-09T01:13:32;19.08;75.98
64937;SHT30;51452;47.698;19.050;2022-09-09T01:16:01;19.11;75.57
64937;SHT30;51452;47.698;19.050;2022-09-09T01:18:37;19.02;75.48
64937;SHT30;51452;47.698;19.050;2022-09-09T01:23:49;18.96;75.51
64937;SHT30;51452;47.698;19.050;2022-09-09T01:26:24;18.98;75.78
64937;SHT30;51452;47.698;19.050;2022-09-09T01:28:52;18.91;75.73
64937;SHT30;51452;47.698;19.050;2022-09-09T01:31:26;18.85;75.37
64937;SHT30;51452;47.698;19.050;2022-09-09T01:33:53;18.98;75.84
64937;SHT30;51452;47.698;19.050;2022-09-09T01:36:39;18.99;75.65
64937;SHT30;51452;47.698;19.050;2022-09-09T01:39:06;18.99;75.56
64937;SHT30;51452;47.698;19.050;2022-09-09T01:41:32;19.01;75.47
64937;SHT30;51452;47.698;19.050;2022-09-09T01:43:57;19.02;75.30
64937;SHT30;51452;47.698;19.050;2022-09-09T01:46:23;19.01;75.01
64937;SHT30;51452;47.698;19.050;2022-09-09T01:48:51;18.98;75.00
64937;SHT30;51452;47.698;19.050;2022-09-09T01:51:17;18.87;75.32
64937;SHT30;51452;47.698;19.050;2022-09-09T01:53:43;18.94;75.37
64937;SHT30;51452;47.698;19.050;2022-09-09T02:01:46;18.77;74.88
64937;SHT30;51452;47.698;19.050;2022-09-09T02:04:39;18.69;75.51
64937;SHT30;51452;47.698;19.050;2022-09-09T02:07:14;18.79;75.29
64937;SHT30;51452;47.698;19.050;2022-09-09T02:09:42;18.94;75.04
64937;SHT30;51452;47.698;19.050;2022-09-09T02:12:14;18.92;75.25
64937;SHT30;51452;47.698;19.050;2022-09-09T02:14:48;18.95;74.73
64937;SHT30;51452;47.698;19.050;2022-09-09T02:17:19;18.78;75.03
64937;SHT30;51452;47.698;19.050;2022-09-09T02:19:56;18.75;76.16
64937;SHT30;51452;47.698;19.050;2022-09-09T02:22:24;18.87;75.15
64937;SHT30;51452;47.698;19.050;2022-09-09T02:24:52;18.87;74.88
64937;SHT30;51452;47.698;19.050;2022-09-09T02:27:22;18.91;75.03
64937;SHT30;51452;47.698;19.050;2022-09-09T02:29:49;18.92;75.70
64937;SHT30;51452;47.698;19.050;2022-09-09T02:32:20;18.95;74.52
64937;SHT30;51452;47.698;19.050;2022-09-09T02:34:49;18.95;74.89
64937;SHT30;51452;47.698;19.050;2022-09-09T02:37:19;18.99;75.18
64937;SHT30;51452;47.698;19.050;2022-09-09T02:39:46;19.01;74.87
64937;SHT30;51452;47.698;19.050;2022-09-09T02:42:11;19.02;74.30
64937;SHT30;51452;47.698;19.050;2022-09-09T02:44:40;18.99;74.24
64937;SHT30;51452;47.698;19.050;2022-09-09T02:55:06;18.95;74.19
64937;SHT30;51452;47.698;19.050;2022-09-09T02:57:33;19.02;73.75
64937;SHT30;51452;47.698;19.050;2022-09-09T02:59:59;19.04;74.23
64937;SHT30;51452;47.698;19.050;2022-09-09T03:02:26;19.02;72.99
64937;SHT30;51452;47.698;19.050;2022-09-09T03:04:51;18.99;73.84
64937;SHT30;51452;47.698;19.050;2022-09-09T03:07:18;18.98;74.30
64937;SHT30;51452;47.698;19.050;2022-09-09T03:09:44;19.04;73.85
64937;SHT30;51452;47.698;19.050;2022-09-09T03:12:10;18.99;73.35
64937;SHT30;51452;47.698;19.050;2022-09-09T03:14:36;19.02;73.25
64937;SHT30;51452;47.698;19.050;2022-09-09T03:17:04;19.02;73.25
64937;SHT30;51452;47.698;19.050;2022-09-09T03:19:29;18.99;73.57
64937;SHT30;51452;47.698;19.050;2022-09-09T03:21:55;18.98;72.96
64937;SHT30;51452;47.698;19.050;2022-09-09T03:24:20;18.85;73.19
64937;SHT30;51452;47.698;19.050;2022-09-09T03:26:46;18.89;73.92
64937;SHT30;51452;47.698;19.050;2022-09-09T03:29:12;18.85;72.87
64937;SHT30;51452;47.698;19.050;2022-09-09T03:31:38;18.72;73.11
64937;SHT30;51452;47.698;19.050;2022-09-09T03:34:03;18.83;72.91
64937;SHT30;51452;47.698;19.050;2022-09-09T03:36:29;18.78;72.85
64937;SHT30;51452;47.698;19.050;2022-09-09T03:38:55;18.83;72.74
64937;SHT30;51452;47.698;19.050;2022-09-09T03:41:22;18.74;72.87
64937;SHT30;51452;47.698;19.050;2022-09-09T03:43:51;18.83;72.39
64937;SHT30;51452;47.698;19.050;2022-09-09T03:46:18;18.78;72.62
64937;SHT30;51452;47.698;19.050;2022-09-09T03:48:43;18.71;72.69
64937;SHT30;51452;47.698;19.050;2022-09-09T03:51:09;18.68;73.24
64937;SHT30;51452;47.698;19.050;2022-09-09T03:53:35;18.67;72.82
64937;SHT30;51452;47.698;19.050;2022-09-09T03:56:02;18.71;72.66
64937;SHT30;51452;47.698;19.050;2022-09-09T03:58:28;18.68;72.92
64937;SHT30;51452;47.698;19.050;2022-09-09T04:00:55;18.69;73.11
64937;SHT30;51452;47.698;19.050;2022-09-09T04:03:21;18.68;72.76
64937;SHT30;51452;47.698;19.050;2022-09-09T04:05:50;18.71;72.81
64937;SHT30;51452;47.698;19.050;2022-09-09T04:08:16;18.72;72.30
64937;SHT30;51452;47.698;19.050;2022-09-09T04:10:41;18.67;72.14
64937;SHT30;51452;47.698;19.050;2022-09-09T04:13:07;18.71;72.14
64937;SHT30;51452;47.698;19.050;2022-09-09T04:15:32;18.65;71.51
64937;SHT30;51452;47.698;19.050;2022-09-09T04:18:00;18.75;71.91
64937;SHT30;51452;47.698;19.050;2022-09-09T04:20:26;18.77;72.35
64937;SHT30;51452;47.698;19.050;2022-09-09T04:22:51;18.72;72.04
64937;SHT30;51452;47.698;19.050;2022-09-09T04:25:16;18.74;71.89
64937;SHT30;51452;47.698;19.050;2022-09-09T04:27:42;18.72;71.90
64937;SHT30;51452;47.698;19.050;2022-09-09T04:30:08;18.85;71.82
64937;SHT30;51452;47.698;19.050;2022-09-09T04:32:34;18.84;71.93
64937;SHT30;51452;47.698;19.050;2022-09-09T04:34:59;18.78;72.28
64937;SHT30;51452;47.698;19.050;2022-09-09T04:37:25;18.78;72.02
64937;SHT30;51452;47.698;19.050;2022-09-09T04:39:50;18.81;72.98
64937;SHT30;51452;47.698;19.050;2022-09-09T04:42:16;18.83;72.45
64937;SHT30;51452;47.698;19.050;2022-09-09T04:44:42;18.85;71.89
64937;SHT30;51452;47.698;19.050;2022-09-09T04:47:08;18.95;72.57
64937;SHT30;51452;47.698;19.050;2022-09-09T04:49:34;18.96;73.20
64937;SHT30;51452;47.698;19.050;2022-09-09T04:52:01;18.95;72.80
64937;SHT30;51452;47.698;19.050;2022-09-09T04:54:26;18.92;73.41
64937;SHT30;51452;47.698;19.050;2022-09-09T04:56:53;18.91;73.85
64937;SHT30;51452;47.698;19.050;2022-09-09T04:59:20;18.79;73.65
64937;SHT30;51452;47.698;19.050;2022-09-09T05:01:45;18.74;73.71
64937;SHT30;51452;47.698;19.050;2022-09-09T05:04:10;18.72;73.56
64937;SHT30;51452;47.698;19.050;2022-09-09T05:06:36;18.69;73.71
64937;SHT30;51452;47.698;19.050;2022-09-09T05:09:02;18.77;73.49
64937;SHT30;51452;47.698;19.050;2022-09-09T05:11:30;18.88;73.72
64937;SHT30;51452;47.698;19.050;2022-09-09T05:13:57;18.87;74.79
64937;SHT30;51452;47.698;19.050;2022-09-09T05:16:22;18.89;74.74
64937;SHT30;51452;47.698;19.050;2022-09-09T05:18:48;18.94;73.50
64937;SHT30;51452;47.698;19.050;2022-09-09T05:21:18;18.99;72.68
64937;SHT30;51452;47.698;19.050;2022-09-09T05:23:44;18.91;72.34
64937;SHT30;51452;47.698;19.050;2022-09-09T05:26:13;19.04;72.27
64937;SHT30;51452;47.698;19.050;2022-09-09T05:28:39;19.11;73.36
64937;SHT30;51452;47.698;19.050;2022-09-09T05:31:06;19.19;72.56
64937;SHT30;51452;47.698;19.050;2022-09-09T05:33:37;19.22;72.42
64937;SHT30;51452;47.698;19.050;2022-09-09T05:36:07;19.22;72.02
64937;SHT30;51452;47.698;19.050;2022-09-09T05:38:34;19.30;71.63
64937;SHT30;51452;47.698;19.050;2022-09-09T05:41:01;19.35;71.40
64937;SHT30;51452;47.698;19.050;2022-09-09T05:43:27;19.36;73.61
64937;SHT30;51452;47.698;19.050;2022-09-09T05:46:02;19.22;72.49
64937;SHT30;51452;47.698;19.050;2022-09-09T05:48:29;19.39;71.86
64937;SHT30;51452;47.698;19.050;2022-09-09T05:50:55;19.40;71.38
64937;SHT30;51452;47.698;19.050;2022-09-09T05:53:20;19.40;71.14
64937;SHT30;51452;47.698;19.050;2022-09-09T05:55:45;19.57;71.49
64937;SHT30;51452;47.698;19.050;2022-09-09T05:58:11;19.65;71.85
64937;SHT30;51452;47.698;19.050;2022-09-09T06:00:36;19.67;71.76
64937;SHT30;51452;47.698;19.050;2022-09-09T06:03:02;19.73;70.53
64937;SHT30;51452;47.698;19.050;2022-09-09T06:05:28;19.93;71.39
64937;SHT30;51452;47.698;19.050;2022-09-09T06:07:54;20.00;70.95
64937;SHT30;51452;47.698;19.050;2022-09-09T06:10:21;20.03;70.99
64937;SHT30;51452;47.698;19.050;2022-09-09T06:12:46;20.05;71.27
64937;SHT30;51452;47.698;19.050;2022-09-09T06:15:12;20.11;71.77
64937;SHT30;51452;47.698;19.050;2022-09-09T06:17:37;20.18;71.91
64937;SHT30;51452;47.698;19.050;2022-09-09T06:20:04;20.14;69.85
64937;SHT30;51452;47.698;19.050;2022-09-09T06:22:30;20.08;69.96
64937;SHT30;51452;47.698;19.050;2022-09-09T06:24:55;20.08;69.66
64937;SHT30;51452;47.698;19.050;2022-09-09T06:27:21;20.15;70.34
64937;SHT30;51452;47.698;19.050;2022-09-09T06:29:46;20.25;70.54
64937;SHT30;51452;47.698;19.050;2022-09-09T06:32:12;20.22;71.21
64937;SHT30;51452;47.698;19.050;2022-09-09T06:34:37;20.36;71.30
64937;SHT30;51452;47.698;19.050;2022-09-09T06:37:02;20.48;70.99
64937;SHT30;51452;47.698;19.050;2022-09-09T06:39:28;20.36;70.79
64937;SHT30;51452;47.698;19.050;2022-09-09T06:41:53;20.48;69.14
64937;SHT30;51452;47.698;19.050;2022-09-09T06:44:19;20.44;70.93
64937;SHT30;51452;47.698;19.050;2022-09-09T06:46:45;20.56;69.70
64937;SHT30;51452;47.698;19.050;2022-09-09T06:49:13;20.62;69.76
64937;SHT30;51452;47.698;19.050;2022-09-09T06:51:39;20.71;69.32
64937;SHT30;51452;47.698;19.050;2022-09-09T06:54:09;20.83;68.37
64937;SHT30;51452;47.698;19.050;2022-09-09T06:56:36;20.87;67.61
64937;SHT30;51452;47.698;19.050;2022-09-09T06:59:04;20.86;66.99
64937;SHT30;51452;47.698;19.050;2022-09-09T07:01:35;20.92;66.52
64937;SHT30;51452;47.698;19.050;2022-09-09T07:04:02;20.89;67.59
64937;SHT30;51452;47.698;19.050;2022-09-09T07:06:34;20.77;69.41
64937;SHT30;51452;47.698;19.050;2022-09-09T07:09:02;20.85;68.41
64937;SHT30;51452;47.698;19.050;2022-09-09T07:11:34;20.87;69.02
64937;SHT30;51452;47.698;19.050;2022-09-09T07:14:00;20.77;68.70
64937;SHT30;51452;47.698;19.050;2022-09-09T07:16:26;20.76;68.05
64937;SHT30;51452;47.698;19.050;2022-09-09T07:18:53;20.80;68.53
64937;SHT30;51452;47.698;19.050;2022-09-09T07:21:23;20.82;67.72
64937;SHT30;51452;47.698;19.050;2022-09-09T07:23:49;20.97;66.25
64937;SHT30;51452;47.698;19.050;2022-09-09T07:26:19;21.06;66.47
64937;SHT30;51452;47.698;19.050;2022-09-09T07:28:45;21.14;66.47
64937;SHT30;51452;47.698;19.050;2022-09-09T07:31:16;21.13;65.40
64937;SHT30;51452;47.698;19.050;2022-09-09T07:33:42;21.34;64.62
64937;SHT30;51452;47.698;19.050;2022-09-09T07:36:10;21.36;65.54
64937;SHT30;51452;47.698;19.050;2022-09-09T07:38:48;21.48;65.01
64937;SHT30;51452;47.698;19.050;2022-09-09T07:41:19;21.67;65.35
64937;SHT30;51452;47.698;19.050;2022-09-09T07:43:46;21.74;65.80
64937;SHT30;51452;47.698;19.050;2022-09-09T07:46:14;21.79;67.91
64937;SHT30;51452;47.698;19.050;2022-09-09T07:48:54;21.84;68.04
64937;SHT30;51452;47.698;19.050;2022-09-09T07:51:22;21.91;68.74
64937;SHT30;51452;47.698;19.050;2022-09-09T07:53:54;21.92;68.44
64937;SHT30;51452;47.698;19.050;2022-09-09T07:56:20;21.95;68.56
64937;SHT30;51452;47.698;19.050;2022-09-09T07:58:50;22.01;68.07
64937;SHT30;51452;47.698;19.050;2022-09-09T08:01:19;22.04;67.29
64937;SHT30;51452;47.698;19.050;2022-09-09T08:03:46;22.12;67.16
64937;SHT30;51452;47.698;19.050;2022-09-09T08:06:12;22.10;65.74
64937;SHT30;51452;47.698;19.050;2022-09-09T08:08:39;22.17;66.13
64937;SHT30;51452;47.698;19.050;2022-09-09T08:11:14;22.16;65.55
64937;SHT30;51452;47.698;19.050;2022-09-09T08:13:41;22.10;66.91
64937;SHT30;51452;47.698;19.050;2022-09-09T08:16:18;22.25;66.66
64937;SHT30;51452;47.698;19.050;2022-09-09T08:18:44;22.29;66.31
64937;SHT30;51452;47.698;19.050;2022-09-09T08:21:18;22.37;66.59
64937;SHT30;51452;47.698;19.050;2022-09-09T08:23:45;22.39;68.38
64937;SHT30;51452;47.698;19.050;2022-09-09T08:28:38;22.55;68.03
64937;SHT30;51452;47.698;19.050;2022-09-09T08:31:17;22.59;68.08
64937;SHT30;51452;47.698;19.050;2022-09-09T08:33:43;22.63;67.28
64937;SHT30;51452;47.698;19.050;2022-09-09T08:36:13;22.70;66.77
64937;SHT30;51452;47.698;19.050;2022-09-09T08:38:41;22.68;66.85
64937;SHT30;51452;47.698;19.050;2022-09-09T08:44:21;22.81;65.91
64937;SHT30;51452;47.698;19.050;2022-09-09T08:47:10;22.73;66.28
64937;SHT30;51452;47.698;19.050;2022-09-09T08:49:57;22.84;66.64
64937;SHT30;51452;47.698;19.050;2022-09-09T08:52:40;22.84;66.41
64937;SHT30;51452;47.698;19.050;2022-09-09T08:55:24;22.91;65.63
64937;SHT30;51452;47.698;19.050;2022-09-09T08:57:53;23.01;65.45
64937;SHT30;51452;47.698;19.050;2022-09-09T09:00:19;23.01;64.94
64937;SHT30;51452;47.698;19.050;2022-09-09T09:05:36;22.98;64.73
64937;SHT30;51452;47.698;19.050;2022-09-09T09:10:53;23.18;64.23
64937;SHT30;51452;47.698;19.050;2022-09-09T09:13:23;23.21;64.49
64937;SHT30;51452;47.698;19.050;2022-09-09T09:15:59;23.32;63.72
64937;SHT30;51452;47.698;19.050;2022-09-09T09:18:26;23.41;63.72
64937;SHT30;51452;47.698;19.050;2022-09-09T09:21:06;23.37;64.78
64937;SHT30;51452;47.698;19.050;2022-09-09T09:24:00;23.42;64.83
64937;SHT30;51452;47.698;19.050;2022-09-09T09:26:44;23.45;63.69
64937;SHT30;51452;47.698;19.050;2022-09-09T09:29:12;23.52;62.77
64937;SHT30;51452;47.698;19.050;2022-09-09T09:31:43;23.62;62.49
64937;SHT30;51452;47.698;19.050;2022-09-09T09:34:10;23.49;62.53
64937;SHT30;51452;47.698;19.050;2022-09-09T09:36:52;23.51;63.15
64937;SHT30;51452;47.698;19.050;2022-09-09T09:41:52;23.49;62.24
64937;SHT30;51452;47.698;19.050;2022-09-09T09:46:49;23.75;62.46
64937;SHT30;51452;47.698;19.050;2022-09-09T09:49:14;23.80;62.12
64937;SHT30;51452;47.698;19.050;2022-09-09T09:51:39;23.69;61.86
64937;SHT30;51452;47.698;19.050;2022-09-09T09:56:44;23.96;62.55
64937;SHT30;51452;47.698;19.050;2022-09-09T09:59:33;23.97;61.30
64937;SHT30;51452;47.698;19.050;2022-09-09T10:02:22;23.97;62.54
64937;SHT30;51452;47.698;19.050;2022-09-09T10:05:03;24.02;60.41
64937;SHT30;51452;47.698;19.050;2022-09-09T10:07:29;23.99;58.00
64937;SHT30;51452;47.698;19.050;2022-09-09T10:09:56;23.77;60.19
64937;SHT30;51452;47.698;19.050;2022-09-09T10:15:20;23.82;59.02
64937;SHT30;51452;47.698;19.050;2022-09-09T10:18:31;23.97;59.14
64937;SHT30;51452;47.698;19.050;2022-09-09T10:32:35;24.60;61.06
64937;SHT30;51452;47.698;19.050;2022-09-09T10:34:54;24.91;59.64
64937;SHT30;51452;47.698;19.050;2022-09-09T10:40:32;24.75;56.23
64937;SHT30;51452;47.698;19.050;2022-09-09T10:53:43;25.15;56.27
64937;SHT30;51452;47.698;19.050;2022-09-09T10:56:13;25.14;58.70
64937;SHT30;51452;47.698;19.050;2022-09-09T10:59:00;25.35;57.48
64937;SHT30;51452;47.698;19.050;2022-09-09T11:04:06;25.37;55.99
64937;SHT30;51452;47.698;19.050;2022-09-09T11:06:39;25.43;53.66
64937;SHT30;51452;47.698;19.050;2022-09-09T11:09:15;25.42;49.50
64937;SHT30;51452;47.698;19.050;2022-09-09T11:11:54;25.45;50.42
64937;SHT30;51452;47.698;19.050;2022-09-09T11:14:28;25.36;51.24
64937;SHT30;51452;47.698;19.050;2022-09-09T11:17:03;25.40;49.97
64937;SHT30;51452;47.698;19.050;2022-09-09T11:22:04;25.45;50.74
64937;SHT30;51452;47.698;19.050;2022-09-09T11:24:41;25.46;48.20
64937;SHT30;51452;47.698;19.050;2022-09-09T11:27:15;25.56;47.16
64937;SHT30;51452;47.698;19.050;2022-09-09T11:29:52;25.69;48.44
64937;SHT30;51452;47.698;19.050;2022-09-09T11:38:18;25.64;49.86
64937;SHT30;51452;47.698;19.050;2022-09-09T11:40:45;25.78;48.06
64937;SHT30;51452;47.698;19.050;2022-09-09T11:43:23;25.73;48.04
64937;SHT30;51452;47.698;19.050;2022-09-09T11:46:00;25.81;46.64
64937;SHT30;51452;47.698;19.050;2022-09-09T11:48:40;25.84;48.62
64937;SHT30;51452;47.698;19.050;2022-09-09T11:51:12;25.76;47.79
64937;SHT30;51452;47.698;19.050;2022-09-09T11:53:55;25.76;48.60
64937;SHT30;51452;47.698;19.050;2022-09-09T11:56:42;25.62;47.53
64937;SHT30;51452;47.698;19.050;2022-09-09T11:59:23;25.42;49.20
64937;SHT30;51452;47.698;19.050;2022-09-09T12:05:08;25.30;46.91
64937;SHT30;51452;47.698;19.050;2022-09-09T12:08:10;25.30;46.78
64937;SHT30;51452;47.698;19.050;2022-09-09T12:10:30;25.45;47.59
64937;SHT30;51452;47.698;19.050;2022-09-09T12:13:17;25.46;48.80
64937;SHT30;51452;47.698;19.050;2022-09-09T12:15:53;25.37;48.03
64937;SHT30;51452;47.698;19.050;2022-09-09T12:18:31;25.39;49.02
64937;SHT30;51452;47.698;19.050;2022-09-09T12:26:47;25.50;48.15
64937;SHT30;51452;47.698;19.050;2022-09-09T12:32:00;25.49;43.40
64937;SHT30;51452;47.698;19.050;2022-09-09T12:34:38;25.39;44.94
64937;SHT30;51452;47.698;19.050;2022-09-09T12:37:30;25.51;45.15
64937;SHT30;51452;47.698;19.050;2022-09-09T12:39:59;25.62;47.55
64937;SHT30;51452;47.698;19.050;2022-09-09T12:42:26;25.70;46.79
64937;SHT30;51452;47.698;19.050;2022-09-09T12:44:55;25.66;44.66
64937;SHT30;51452;47.698;19.050;2022-09-09T12:47:46;25.77;47.54
64937;SHT30;51452;47.698;19.050;2022-09-09T12:50:19;25.85;49.10
64937;SHT30;51452;47.698;19.050;2022-09-09T12:52:47;25.93;46.29
64937;SHT30;51452;47.698;19.050;2022-09-09T12:55:18;25.88;45.10
64937;SHT30;51452;47.698;19.050;2022-09-09T12:57:44;26.02;45.10
64937;SHT30;51452;47.698;19.050;2022-09-09T13:00:20;25.91;46.47
64937;SHT30;51452;47.698;19.050;2022-09-09T13:02:58;25.97;47.02
64937;SHT30;51452;47.698;19.050;2022-09-09T13:05:26;26.20;45.85
64937;SHT30;51452;47.698;19.050;2022-09-09T13:08:03;26.08;42.70
64937;SHT30;51452;47.698;19.050;2022-09-09T13:10:33;26.22;44.33
64937;SHT30;51452;47.698;19.050;2022-09-09T13:13:00;26.34;43.11
64937;SHT30;51452;47.698;19.050;2022-09-09T13:15:28;26.38;43.58
64937;SHT30;51452;47.698;19.050;2022-09-09T13:17:59;26.31;42.14
64937;SHT30;51452;47.698;19.050;2022-09-09T13:20:27;26.34;42.63
64937;SHT30;51452;47.698;19.050;2022-09-09T13:22:54;26.31;42.06
64937;SHT30;51452;47.698;19.050;2022-09-09T13:25:26;26.28;42.71
64937;SHT30;51452;47.698;19.050;2022-09-09T13:30:29;26.08;39.30
64937;SHT30;51452;47.698;19.050;2022-09-09T13:35:47;26.15;44.63
64937;SHT30;51452;47.698;19.050;2022-09-09T13:38:15;26.07;43.24
64937;SHT30;51452;47.698;19.050;2022-09-09T13:40:52;26.11;41.37
64937;SHT30;51452;47.698;19.050;2022-09-09T13:43:21;26.13;41.42
64937;SHT30;51452;47.698;19.050;2022-09-09T13:45:59;26.04;41.38
64937;SHT30;51452;47.698;19.050;2022-09-09T13:48:25;26.08;41.63
64937;SHT30;51452;47.698;19.050;2022-09-09T13:50:55;26.22;42.79
64937;SHT30;51452;47.698;19.050;2022-09-09T13:53:21;26.26;42.95
64937;SHT30;51452;47.698;19.050;2022-09-09T13:55:47;26.35;43.44
64937;SHT30;51452;47.698;19.050;2022-09-09T13:58:16;26.26;41.86
64937;SHT30;51452;47.698;19.050;2022-09-09T14:00:43;26.38;42.69
64937;SHT30;51452;47.698;19.050;2022-09-09T14:03:09;26.24;42.29
64937;SHT30;51452;47.698;19.050;2022-09-09T14:05:35;26.24;41.65
64937;SHT30;51452;47.698;19.050;2022-09-09T14:08:05;26.04;44.77
64937;SHT30;51452;47.698;19.050;2022-09-09T14:10:31;26.17;43.16
64937;SHT30;51452;47.698;19.050;2022-09-09T14:12:56;26.24;44.18
64937;SHT30;51452;47.698;19.050;2022-09-09T14:15:22;26.38;45.05
64937;SHT30;51452;47.698;19.050;2022-09-09T14:17:47;26.44;43.82
64937;SHT30;51452;47.698;19.050;2022-09-09T14:20:14;26.39;44.01
64937;SHT30;51452;47.698;19.050;2022-09-09T14:22:41;26.46;42.25
64937;SHT30;51452;47.698;19.050;2022-09-09T14:25:07;26.35;44.32
64937;SHT30;51452;47.698;19.050;2022-09-09T14:27:33;26.31;41.46
64937;SHT30;51452;47.698;19.050;2022-09-09T14:29:58;26.35;43.38
64937;SHT30;51452;47.698;19.050;2022-09-09T14:32:25;26.36;43.34
64937;SHT30;51452;47.698;19.050;2022-09-09T14:34:50;26.28;42.89
64937;SHT30;51452;47.698;19.050;2022-09-09T14:37:16;26.13;42.39
64937;SHT30;51452;47.698;19.050;2022-09-09T14:39:43;26.04;42.86
64937;SHT30;51452;47.698;19.050;2022-09-09T14:42:10;25.97;42.36
64937;SHT30;51452;47.698;19.050;2022-09-09T14:44:36;25.90;45.75
64937;SHT30;51452;47.698;19.050;2022-09-09T14:47:04;25.87;41.62
64937;SHT30;51452;47.698;19.050;2022-09-09T14:49:29;25.83;42.35
64937;SHT30;51452;47.698;19.050;2022-09-09T14:51:55;25.77;44.81
64937;SHT30;51452;47.698;19.050;2022-09-09T14:54:20;25.71;42.82
64937;SHT30;51452;47.698;19.050;2022-09-09T14:56:46;25.78;42.85
64937;SHT30;51452;47.698;19.050;2022-09-09T14:59:12;25.80;43.92
64937;SHT30;51452;47.698;19.050;2022-09-09T15:01:38;25.78;43.49
64937;SHT30;51452;47.698;19.050;2022-09-09T15:04:04;25.80;46.18
64937;SHT30;51452;47.698;19.050;2022-09-09T15:06:31;25.57;43.43
64937;SHT30;51452;47.698;19.050;2022-09-09T15:08:58;25.76;44.86
64937;SHT30;51452;47.698;19.050;2022-09-09T15:11:27;25.77;44.45
64937;SHT30;51452;47.698;19.050;2022-09-09T15:13:53;25.78;45.67
64937;SHT30;51452;47.698;19.050;2022-09-09T15:16:19;25.80;43.38
64937;SHT30;51452;47.698;19.050;2022-09-09T15:18:46;25.83;44.16
64937;SHT30;51452;47.698;19.050;2022-09-09T15:21:14;25.81;45.33
64937;SHT30;51452;47.698;19.050;2022-09-09T15:23:39;25.76;42.61
64937;SHT30;51452;47.698;19.050;2022-09-09T15:26:05;25.71;47.65
64937;SHT30;51452;47.698;19.050;2022-09-09T15:28:35;25.60;47.32
64937;SHT30;51452;47.698;19.050;2022-09-09T15:31:05;25.50;49.78
64937;SHT30;51452;47.698;19.050;2022-09-09T15:33:32;25.45;50.14
64937;SHT30;51452;47.698;19.050;2022-09-09T15:35:57;25.40;49.18
64937;SHT30;51452;47.698;19.050;2022-09-09T15:38:22;25.30;49.95
64937;SHT30;51452;47.698;19.050;2022-09-09T15:40:57;25.20;50.08
64937;SHT30;51452;47.698;19.050;2022-09-09T15:43:23;25.16;50.65
64937;SHT30;51452;47.698;19.050;2022-09-09T15:45:54;25.05;50.63
64937;SHT30;51452;47.698;19.050;2022-09-09T15:48:29;24.85;49.65
64937;SHT30;51452;47.698;19.050;2022-09-09T15:51:03;24.89;45.10
64937;SHT30;51452;47.698;19.050;2022-09-09T15:53:29;24.95;44.01
64937;SHT30;51452;47.698;19.050;2022-09-09T15:55:55;24.85;43.53
64937;SHT30;51452;47.698;19.050;2022-09-09T15:58:21;24.84;45.33
64937;SHT30;51452;47.698;19.050;2022-09-09T16:00:46;24.86;46.94
64937;SHT30;51452;47.698;19.050;2022-09-09T16:03:11;24.76;48.16
64937;SHT30;51452;47.698;19.050;2022-09-09T16:05:37;24.78;50.27
64937;SHT30;51452;47.698;19.050;2022-09-09T16:08:02;24.69;53.41
64937;SHT30;51452;47.698;19.050;2022-09-09T16:10:28;24.63;52.42
64937;SHT30;51452;47.698;19.050;2022-09-09T16:12:53;24.65;53.17
64937;SHT30;51452;47.698;19.050;2022-09-09T16:15:18;24.60;54.12
64937;SHT30;51452;47.698;19.050;2022-09-09T16:17:47;24.60;54.74
64937;SHT30;51452;47.698;19.050;2022-09-09T16:20:13;24.57;55.26
64937;SHT30;51452;47.698;19.050;2022-09-09T16:22:39;24.58;56.01
64937;SHT30;51452;47.698;19.050;2022-09-09T16:25:05;24.53;56.81
64937;SHT30;51452;47.698;19.050;2022-09-09T16:27:31;24.50;57.33
64937;SHT30;51452;47.698;19.050;2022-09-09T16:29:57;24.44;57.68
64937;SHT30;51452;47.698;19.050;2022-09-09T16:32:22;24.37;57.59
64937;SHT30;51452;47.698;19.050;2022-09-09T16:34:47;24.30;56.59
64937;SHT30;51452;47.698;19.050;2022-09-09T16:37:13;24.27;55.23
64937;SHT30;51452;47.698;19.050;2022-09-09T16:39:38;24.24;54.65
64937;SHT30;51452;47.698;19.050;2022-09-09T16:42:04;24.24;56.06
64937;SHT30;51452;47.698;19.050;2022-09-09T16:44:30;24.20;57.57
64937;SHT30;51452;47.698;19.050;2022-09-09T16:46:56;24.16;57.83
64937;SHT30;51452;47.698;19.050;2022-09-09T16:49:21;24.09;56.32
64937;SHT30;51452;47.698;19.050;2022-09-09T16:51:48;24.00;57.05
64937;SHT30;51452;47.698;19.050;2022-09-09T16:54:16;23.96;58.40
64937;SHT30;51452;47.698;19.050;2022-09-09T16:56:44;23.93;58.48
64937;SHT30;51452;47.698;19.050;2022-09-09T16:59:20;23.82;57.13
64937;SHT30;51452;47.698;19.050;2022-09-09T17:01:48;23.76;53.57
64937;SHT30;51452;47.698;19.050;2022-09-09T17:04:16;23.76;54.15
64937;SHT30;51452;47.698;19.050;2022-09-09T17:06:46;23.70;54.65
64937;SHT30;51452;47.698;19.050;2022-09-09T17:09:12;23.72;54.79
64937;SHT30;51452;47.698;19.050;2022-09-09T17:11:39;23.69;55.44
64937;SHT30;51452;47.698;19.050;2022-09-09T17:14:05;23.63;55.07
64937;SHT30;51452;47.698;19.050;2022-09-09T17:16:32;23.56;53.28
64937;SHT30;51452;47.698;19.050;2022-09-09T17:18:59;23.56;51.94
64937;SHT30;51452;47.698;19.050;2022-09-09T17:21:27;23.54;51.14
64937;SHT30;51452;47.698;19.050;2022-09-09T17:23:54;23.51;52.86
64937;SHT30;51452;47.698;19.050;2022-09-09T17:26:21;23.46;53.85